Time;durP1;ratioP1;P1;durP2;ratioP2;P2;SDS_P1;SDS_P2;PMS_P1;PMS_P2;Temp;Humidity;BMP_temperature;BMP_pressure;BME280_temperature;BME280_humidity;BME280_pressure;Samples;Min_cycle;Max_cycle;Signal;HPM_P1;HPM_P2
2023/07/08 00:00:23;;;;;;;7.37;3.93;;;;;;;16.23;89.84;100807.89;1397009;90;21346;-83
2023/07/08 00:02:50;;;;;;;6.60;3.13;;;;;;;16.21;89.97;100807.22;1425894;90;21555;-83
2023/07/08 00:05:19;;;;;;;16.07;4.23;;;;;;;16.19;89.75;100803.88;1453161;89;21309;-86
2023/07/08 00:07:46;;;;;;;9.93;3.77;;;;;;;16.19;90.06;100807.06;1453207;90;21316;-84
2023/07/08 00:10:17;;;;;;;6.93;3.67;;;;;;;16.18;90.87;100811.58;1446661;90;21465;-82
2023/07/08 00:12:46;;;;;;;4.93;3.80;;;;;;;16.19;90.88;100807.89;1446190;89;21579;-84
2023/07/08 00:15:12;;;;;;;5.37;4.07;;;;;;;16.20;91.05;100813.58;1448029;89;21434;-84
2023/07/08 00:17:40;;;;;;;6.53;3.87;;;;;;;16.20;91.31;100812.25;1453028;89;21497;-84
2023/07/08 00:20:22;;;;;;;6.90;3.47;;;;;;;16.19;91.25;100811.89;1449581;89;21309;-83
2023/07/08 00:22:51;;;;;;;20.27;3.40;;;;;;;16.16;91.32;100812.25;1448358;89;21530;-87
2023/07/08 00:25:21;;;;;;;6.83;3.47;;;;;;;16.13;91.53;100809.92;1453068;89;21531;-87
2023/07/08 00:27:48;;;;;;;9.33;4.23;;;;;;;16.13;91.70;100817.94;1453840;89;22277;-86
2023/07/08 00:30:22;;;;;;;5.47;3.60;;;;;;;16.13;92.12;100823.28;1443240;89;21611;-86
2023/07/08 00:32:53;;;;;;;4.30;3.63;;;;;;;16.09;91.75;100816.64;1444172;89;22340;-85
2023/07/08 00:35:16;;;;;;;5.80;3.53;;;;;;;16.01;92.42;100822.84;1456568;89;21582;-84
2023/07/08 00:37:42;;;;;;;20.40;4.87;;;;;;;15.93;93.15;100826.05;1458539;89;21636;-84
2023/07/08 00:40:17;;;;;;;10.03;4.10;;;;;;;15.85;92.99;100825.56;1455158;89;21383;-83
2023/07/08 00:42:44;;;;;;;4.80;3.70;;;;;;;15.81;93.45;100821.58;1452149;89;21613;-83
2023/07/08 00:45:36;;;;;;;10.07;2.93;;;;;;;15.76;93.82;100816.75;1455992;89;21301;-83
2023/07/08 00:48:27;;;;;;;6.07;3.87;;;;;;;15.71;94.01;100816.45;1449857;89;22233;-83
2023/07/08 00:50:54;;;;;;;9.03;3.87;;;;;;;15.70;94.17;100820.11;1445778;89;21360;-84
2023/07/08 00:53:33;;;;;;;6.03;3.70;;;;;;;15.70;94.60;100825.95;1453924;88;21611;-83
2023/07/08 00:56:14;;;;;;;5.03;3.70;;;;;;;15.69;95.04;100822.45;1454298;89;21552;-84
2023/07/08 00:58:46;;;;;;;6.42;3.62;;;;;;;15.69;95.48;100822.97;1455448;89;22329;-84
2023/07/08 01:01:12;;;;;;;13.20;4.80;;;;;;;15.66;96.34;100820.09;1452327;89;21627;-83
2023/07/08 01:03:52;;;;;;;7.33;3.17;;;;;;;15.60;96.18;100818.12;1449286;89;21508;-83
2023/07/08 01:06:21;;;;;;;9.00;3.75;;;;;;;15.52;96.73;100811.47;1453966;89;22447;-84
2023/07/08 01:08:52;;;;;;;11.87;3.47;;;;;;;15.47;96.53;100816.47;1453572;89;21397;-86
2023/07/08 01:11:17;;;;;;;5.77;3.20;;;;;;;15.45;96.92;100813.13;1450241;89;22328;-86
2023/07/08 01:13:44;;;;;;;6.87;3.17;;;;;;;15.45;96.85;100811.80;1453595;89;22573;-86
2023/07/08 01:16:14;;;;;;;9.33;4.27;;;;;;;15.45;96.52;100813.13;1452597;90;21449;-87
2023/07/08 01:18:41;;;;;;;5.87;3.50;;;;;;;15.42;96.41;100805.47;1456579;88;21538;-86
2023/07/08 01:21:30;;;;;;;6.03;3.83;;;;;;;15.40;96.67;100810.17;1453685;88;21353;-87
2023/07/08 01:23:56;;;;;;;7.77;3.67;;;;;;;15.35;96.32;100808.83;1454513;90;21663;-84
2023/07/08 01:26:25;;;;;;;7.57;3.67;;;;;;;15.32;97.45;100814.50;1456991;88;22410;-86
2023/07/08 01:28:55;;;;;;;7.60;4.07;;;;;;;15.27;97.19;100815.50;1457123;88;21375;-83
2023/07/08 01:31:23;;;;;;;5.03;3.22;;;;;;;15.25;97.40;100815.36;1451741;88;21516;-86
2023/07/08 01:33:52;;;;;;;6.80;3.60;;;;;;;15.21;97.31;100812.17;1453040;88;21361;-85
2023/07/08 01:36:18;;;;;;;5.23;3.47;;;;;;;15.19;97.18;100812.87;1450174;88;22952;-85
2023/07/08 01:38:45;;;;;;;7.00;3.47;;;;;;;15.18;97.96;100812.52;1453096;88;21324;-85
2023/07/08 01:41:15;;;;;;;7.97;3.60;;;;;;;15.19;98.13;100812.87;1451742;88;21375;-87
2023/07/08 01:43:41;;;;;;;7.10;4.03;;;;;;;15.18;98.30;100812.52;1449049;88;22350;-85
2023/07/08 01:46:13;;;;;;;4.23;3.03;;;;;;;15.14;98.40;100809.87;1454754;88;21515;-86
2023/07/08 01:48:43;;;;;;;7.47;3.73;;;;;;;15.09;98.31;100810.36;1444657;88;22337;-83
2023/07/08 01:51:10;;;;;;;4.55;3.65;;;;;;;15.05;98.63;100811.70;1461607;88;21486;-86
2023/07/08 01:53:42;;;;;;;6.53;3.53;;;;;;;15.02;98.71;100804.05;1449598;88;21583;-87
2023/07/08 01:56:12;;;;;;;5.93;3.63;;;;;;;15.00;99.36;100802.55;1453554;88;21427;-85
2023/07/08 01:58:38;;;;;;;10.17;3.47;;;;;;;15.03;99.44;100810.20;1451524;88;21509;-84
2023/07/08 02:01:06;;;;;;;7.17;3.77;;;;;;;15.00;100.00;100799.37;1443035;90;21391;-85
2023/07/08 02:03:33;;;;;;;5.60;3.40;;;;;;;15.03;99.72;100806.20;1457329;88;22218;-86
2023/07/08 02:05:59;;;;;;;4.97;3.47;;;;;;;15.05;99.84;100805.05;1452107;88;22269;-86
2023/07/08 02:08:26;;;;;;;6.23;3.40;;;;;;;15.05;99.37;100808.22;1446774;88;22292;-85
2023/07/08 02:10:56;;;;;;;7.83;3.33;;;;;;;15.06;99.65;100809.36;1456093;88;21501;-86
2023/07/08 02:13:23;;;;;;;9.73;4.58;;;;;;;15.07;99.57;100807.52;1447688;90;21516;-83
2023/07/08 02:15:51;;;;;;;6.50;3.70;;;;;;;15.06;99.57;100813.87;1456690;88;21390;-86
2023/07/08 02:18:23;;;;;;;10.10;3.53;;;;;;;15.05;99.51;100809.55;1450255;88;21650;-88
2023/07/08 02:20:49;;;;;;;9.60;4.57;;;;;;;15.04;99.29;100811.86;1445131;89;21539;-86
2023/07/08 02:23:15;;;;;;;6.47;3.87;;;;;;;15.03;99.38;100806.20;1446094;88;21353;-85
2023/07/08 02:25:44;;;;;;;8.53;3.93;;;;;;;15.04;99.28;100807.36;1456882;88;21523;-86
2023/07/08 02:28:10;;;;;;;4.50;2.80;;;;;;;15.05;99.14;100810.88;1456433;89;22380;-86
2023/07/08 02:30:36;;;;;;;5.67;3.87;;;;;;;15.04;99.32;100804.69;1451850;88;21531;-87
2023/07/08 02:33:03;;;;;;;8.77;3.27;;;;;;;15.06;99.28;100803.20;1445797;90;21537;-86
2023/07/08 02:35:30;;;;;;;5.10;3.20;;;;;;;15.08;99.63;100803.88;1449220;88;21568;-86
2023/07/08 02:37:57;;;;;;;5.13;3.50;;;;;;;15.06;99.60;100805.87;1454819;88;21951;-87
2023/07/08 02:40:25;;;;;;;5.73;3.40;;;;;;;15.04;99.38;100797.20;1450420;88;21575;-84
2023/07/08 02:42:51;;;;;;;9.73;3.37;;;;;;;15.06;99.23;100805.87;1456099;88;22992;-85
2023/07/08 02:45:18;;;;;;;15.00;3.97;;;;;;;15.07;99.06;100811.02;1451583;88;22283;-83
2023/07/08 02:47:45;;;;;;;5.63;4.00;;;;;;;15.09;98.87;100814.36;1451656;88;21524;-84
2023/07/08 02:50:13;;;;;;;6.77;4.17;;;;;;;15.09;98.70;100817.53;1450802;88;21398;-85
2023/07/08 02:52:39;;;;;;;8.13;3.43;;;;;;;15.08;98.46;100809.21;1452260;90;21443;-85
2023/07/08 02:55:07;;;;;;;8.07;3.40;;;;;;;15.08;98.41;100815.37;1454898;90;21508;-85
2023/07/08 02:57:33;;;;;;;9.00;3.40;;;;;;;15.06;98.76;100818.69;1448588;88;22197;-84
2023/07/08 02:59:59;;;;;;;13.00;4.70;;;;;;;15.06;99.10;100822.69;1457515;88;23266;-85
2023/07/08 03:02:27;;;;;;;8.87;3.73;;;;;;;15.07;99.33;100818.19;1454734;88;22285;-86
2023/07/08 03:04:54;;;;;;;3.43;3.10;;;;;;;15.08;99.23;100822.03;1450374;88;21501;-86
2023/07/08 03:07:20;;;;;;;5.70;3.83;;;;;;;15.08;99.37;100819.87;1451006;90;21345;-86
2023/07/08 03:09:46;;;;;;;10.43;3.77;;;;;;;15.08;99.38;100822.54;1448291;88;21523;-85
2023/07/08 03:12:13;;;;;;;6.97;3.60;;;;;;;15.08;99.43;100826.53;1451653;88;21724;-88
2023/07/08 03:14:39;;;;;;;7.17;3.67;;;;;;;15.08;99.38;100826.53;1454238;88;22414;-87
2023/07/08 03:17:06;;;;;;;6.47;3.40;;;;;;;15.09;99.37;100826.86;1452804;89;21560;-87
2023/07/08 03:19:32;;;;;;;4.30;3.00;;;;;;;15.10;99.41;100832.52;1448682;89;22321;-87
2023/07/08 03:21:59;;;;;;;7.43;3.40;;;;;;;15.12;99.35;100831.85;1449763;88;21449;-85
2023/07/08 03:24:25;;;;;;;5.67;4.00;;;;;;;15.11;100.00;100835.53;1447251;89;22492;-88
2023/07/08 03:26:54;;;;;;;5.87;3.80;;;;;;;15.13;99.74;100825.51;1452169;89;22211;-87
2023/07/08 03:29:21;;;;;;;8.77;3.60;;;;;;;15.14;99.63;100832.53;1454227;89;21427;-89
2023/07/08 03:31:47;;;;;;;7.30;3.40;;;;;;;15.17;100.00;100830.03;1455683;89;21622;-88
2023/07/08 03:34:17;;;;;;;9.30;3.70;;;;;;;15.22;99.60;100831.67;1449735;89;21369;-87
2023/07/08 03:36:50;;;;;;;5.07;3.27;;;;;;;15.25;99.53;100830.03;1447019;90;21642;-89
2023/07/08 03:39:24;;;;;;;7.20;3.47;;;;;;;15.30;99.05;100835.16;1456316;89;22500;-87
2023/07/08 03:41:52;;;;;;;9.10;3.37;;;;;;;15.33;98.88;100834.85;1462118;89;21325;-88
2023/07/08 03:44:19;;;;;;;4.17;3.37;;;;;;;15.38;98.59;100830.83;1451010;89;21383;-86
2023/07/08 03:46:49;;;;;;;5.27;3.40;;;;;;;15.42;98.60;100834.81;1445762;89;21531;-89
2023/07/08 03:49:21;;;;;;;3.25;2.92;;;;;;;15.45;98.54;100838.00;1452258;89;22339;-87
2023/07/08 03:51:45;;;;;;;9.33;3.33;;;;;;;15.50;98.55;100841.47;1452016;90;21573;-86
2023/07/08 03:54:14;;;;;;;7.87;3.50;;;;;;;15.56;98.33;100843.45;1452874;89;21471;-88
2023/07/08 03:56:40;;;;;;;4.50;3.40;;;;;;;15.63;98.03;100836.45;1443913;90;21553;-84
2023/07/08 03:59:07;;;;;;;7.67;4.03;;;;;;;15.67;97.74;100844.44;1451326;89;21376;-87
2023/07/08 04:01:34;;;;;;;6.87;4.17;;;;;;;15.70;97.43;100845.97;1449242;89;21550;-87
2023/07/08 04:04:01;;;;;;;6.37;3.33;;;;;;;15.76;97.38;100846.10;1452713;89;21427;-89
2023/07/08 04:06:28;;;;;;;8.03;4.40;;;;;;;15.83;97.32;100850.78;1455980;90;22396;-87
2023/07/08 04:08:55;;;;;;;5.17;3.37;;;;;;;15.88;97.06;100850.59;1450016;89;21456;-86
2023/07/08 04:11:23;;;;;;;6.03;3.73;;;;;;;15.94;97.06;100856.58;1446348;89;21634;-85
2023/07/08 04:13:51;;;;;;;5.27;3.87;;;;;;;15.97;96.91;100861.57;1444114;89;21590;-87
2023/07/08 04:16:47;;;;;;;5.80;4.20;;;;;;;16.00;96.78;100868.41;1455245;89;21648;-87
2023/07/08 04:19:15;;;;;;;12.77;4.77;;;;;;;16.03;96.75;100868.06;1448955;90;21479;-90
2023/07/08 04:21:43;;;;;;;5.10;3.67;;;;;;;16.07;96.54;100865.36;1444445;88;22578;-86
2023/07/08 04:24:16;;;;;;;5.93;4.20;;;;;;;16.13;96.28;100866.00;1452550;90;21398;-86
2023/07/08 04:26:46;;;;;;;6.77;3.80;;;;;;;16.21;96.16;100865.15;1454055;90;21360;-84
2023/07/08 04:29:19;;;;;;;6.62;3.47;;;;;;;16.29;96.13;100865.62;1459963;89;21449;-84
2023/07/08 04:31:47;;;;;;;8.00;3.77;;;;;;;16.35;95.46;100863.59;1447664;89;21617;-88
2023/07/08 04:34:15;;;;;;;6.93;3.60;;;;;;;16.42;95.54;100869.88;1443945;90;21368;-87
2023/07/08 04:36:41;;;;;;;6.83;4.10;;;;;;;16.49;95.28;100868.70;1448318;89;21575;-89
2023/07/08 04:39:09;;;;;;;5.70;3.83;;;;;;;16.53;94.33;100863.31;1448897;89;21413;-87
2023/07/08 04:41:40;;;;;;;8.80;3.73;;;;;;;16.64;94.65;100873.61;1453752;89;22859;-84
2023/07/08 04:44:13;;;;;;;6.57;3.67;;;;;;;16.74;94.49;100872.03;1451372;89;22314;-87
2023/07/08 04:46:54;;;;;;;5.57;4.07;;;;;;;16.91;94.33;100866.93;1453113;89;21552;-87
2023/07/08 04:49:22;;;;;;;8.23;4.70;;;;;;;17.03;93.33;100868.20;1446649;89;21428;-86
2023/07/08 04:51:51;;;;;;;8.70;4.50;;;;;;;17.11;92.62;100877.47;1447013;90;22314;-84
2023/07/08 04:54:17;;;;;;;5.57;4.10;;;;;;;17.18;91.58;100873.59;1453834;88;21546;-89
2023/07/08 04:56:47;;;;;;;4.77;3.10;;;;;;;17.29;92.12;100874.98;1443974;90;21485;-89
2023/07/08 04:59:19;;;;;;;5.63;3.77;;;;;;;17.40;92.22;100877.73;1453517;88;21420;-85
2023/07/08 05:01:46;;;;;;;6.80;3.97;;;;;;;17.50;90.31;100866.28;1448421;90;22375;-87
2023/07/08 05:04:18;;;;;;;9.63;4.53;;;;;;;17.62;89.88;100868.83;1454854;89;21568;-85
2023/07/08 05:06:44;;;;;;;13.77;4.43;;;;;;;17.73;88.60;100870.23;1447072;89;21561;-87
2023/07/08 05:09:11;;;;;;;6.27;4.03;;;;;;;17.84;88.37;100869.81;1452864;89;21391;-87
2023/07/08 05:11:37;;;;;;;9.10;4.63;;;;;;;17.96;87.59;100868.84;1456951;89;21590;-84
2023/07/08 05:14:05;;;;;;;7.10;3.47;;;;;;;18.06;87.65;100871.22;1451445;89;21508;-89
2023/07/08 05:16:37;;;;;;;5.80;3.98;;;;;;;18.15;86.33;100870.92;1459540;89;21876;-86
2023/07/08 05:19:03;;;;;;;7.13;4.57;;;;;;;18.29;85.29;100873.78;1450545;89;21427;-87
2023/07/08 05:21:33;;;;;;;8.48;3.95;;;;;;;18.38;84.42;100869.97;1447981;89;21531;-84
2023/07/08 05:24:01;;;;;;;7.35;3.70;;;;;;;18.43;83.37;100863.03;1447447;90;21420;-85
2023/07/08 05:26:28;;;;;;;8.30;4.42;;;;;;;18.52;83.13;100866.43;1450556;89;21375;-85
2023/07/08 05:28:57;;;;;;;8.50;3.77;;;;;;;18.58;81.68;100852.78;1451058;90;22410;-85
2023/07/08 05:31:23;;;;;;;4.28;3.58;;;;;;;18.62;82.60;100860.27;1450362;89;22558;-85
2023/07/08 05:33:49;;;;;;;7.20;4.40;;;;;;;18.73;82.00;100875.03;1437511;90;23040;-85
2023/07/08 05:36:16;;;;;;;5.80;4.03;;;;;;;18.84;82.38;100873.19;1451587;89;22425;-84
2023/07/08 05:38:43;;;;;;;4.95;3.75;;;;;;;18.93;81.91;100874.75;1462484;89;22307;-86
2023/07/08 05:41:09;;;;;;;7.10;3.87;;;;;;;19.02;82.13;100883.98;1451330;89;21553;-85
2023/07/08 05:43:36;;;;;;;8.43;4.28;;;;;;;19.09;81.18;100883.55;1453273;89;21444;-86
2023/07/08 05:46:02;;;;;;;19.90;5.50;;;;;;;19.16;80.86;100883.08;1451627;89;21567;-90
2023/07/08 05:48:29;;;;;;;5.95;3.98;;;;;;;19.23;81.00;100876.45;1453411;89;21404;-92
2023/07/08 05:50:56;;;;;;;6.40;3.95;;;;;;;19.28;80.37;100877.53;1451534;89;21412;-91
2023/07/08 05:53:23;;;;;;;5.42;4.42;;;;;;;19.33;79.88;100880.48;1451267;90;21891;-90
2023/07/08 05:55:51;;;;;;;7.67;3.52;;;;;;;19.44;80.36;100875.58;1450958;89;22351;-89
2023/07/08 05:58:17;;;;;;;6.30;3.27;;;;;;;19.57;79.87;100875.70;1461090;89;22300;-90
2023/07/08 06:00:44;;;;;;;11.70;3.90;;;;;;;19.72;80.67;100875.09;1460940;88;21421;-88
2023/07/08 06:03:11;;;;;;;5.92;3.70;;;;;;;19.92;80.44;100878.42;1467642;89;21465;-91
2023/07/08 06:05:38;;;;;;;10.10;3.60;;;;;;;20.08;80.05;100874.56;1457474;89;21368;-93
2023/07/08 06:08:07;;;;;;;8.73;3.67;;;;;;;20.24;80.11;100873.72;1453781;90;22379;-89
2023/07/08 06:10:34;;;;;;;4.65;3.27;;;;;;;20.43;78.73;100880.73;1445565;88;21361;-88
2023/07/08 06:13:00;;;;;;;7.47;3.40;;;;;;;20.54;76.63;100881.50;1454226;89;22449;-89
2023/07/08 06:15:27;;;;;;;10.75;4.35;;;;;;;20.58;73.61;100884.12;1451589;89;21553;-89
2023/07/08 06:17:54;;;;;;;6.47;3.02;;;;;;;20.59;73.53;100887.11;1454208;88;22262;-86
2023/07/08 06:20:20;;;;;;;7.78;3.75;;;;;;;20.58;73.25;100881.42;1447069;88;21397;-83
2023/07/08 06:22:47;;;;;;;5.05;3.47;;;;;;;20.57;73.12;100885.16;1448979;88;21449;-88
2023/07/08 06:25:13;;;;;;;5.92;2.95;;;;;;;20.56;72.31;100878.10;1450665;90;22072;-88
2023/07/08 06:27:39;;;;;;;6.17;4.03;;;;;;;20.58;72.35;100883.30;1454967;88;21487;-87
2023/07/08 06:30:08;;;;;;;3.47;3.17;;;;;;;20.61;73.22;100881.02;1449686;88;21317;-89
2023/07/08 06:32:34;;;;;;;4.58;3.42;;;;;;;20.66;72.45;100879.91;1458970;90;21323;-89
2023/07/08 06:35:01;;;;;;;3.33;2.77;;;;;;;20.70;71.87;100877.11;1453045;88;21702;-87
2023/07/08 06:37:27;;;;;;;6.65;3.37;;;;;;;20.80;71.90;100879.42;1456995;88;21405;-88
2023/07/08 06:39:53;;;;;;;4.87;3.33;;;;;;;20.94;71.23;100872.18;1453400;88;21405;-90
2023/07/08 06:42:20;;;;;;;3.83;2.95;;;;;;;21.07;71.41;100874.08;1452686;88;21428;-89
2023/07/08 06:44:50;;;;;;;6.85;3.25;;;;;;;21.23;70.62;100874.17;1457325;88;21442;-88
2023/07/08 06:47:14;;;;;;;7.90;3.33;;;;;;;21.42;67.67;100854.53;1453913;90;21435;-92
2023/07/08 06:49:40;;;;;;;5.42;3.77;;;;;;;21.63;67.64;100866.40;1451437;88;21538;-88
2023/07/08 06:52:07;;;;;;;7.25;3.20;;;;;;;21.63;67.64;100866.40;1451527;88;21450;-89
2023/07/08 06:54:35;;;;;;;5.95;3.08;;;;;;;21.72;66.80;100867.53;1457582;88;21338;-86
2023/07/08 06:57:01;;;;;;;7.72;3.27;;;;;;;21.89;67.81;100870.08;1454941;88;21515;-87
2023/07/08 06:59:28;;;;;;;6.72;3.65;;;;;;;22.06;67.64;100863.19;1453717;88;21494;-87
2023/07/08 07:01:55;;;;;;;9.15;3.50;;;;;;;22.23;67.14;100868.14;1441741;90;22314;-86
2023/07/08 07:04:21;;;;;;;8.28;4.55;;;;;;;22.38;67.10;100872.73;1453199;88;22381;-84
2023/07/08 07:06:48;;;;;;;3.55;2.52;;;;;;;22.50;64.86;100871.56;1456425;88;21421;-83
2023/07/08 07:09:14;;;;;;;3.92;2.35;;;;;;;22.53;63.60;100867.91;1457558;88;21504;-84
2023/07/08 07:16:09;;;;;;;6.28;2.60;;;;;;;22.66;59.04;100863.47;1450268;89;21427;-80
2023/07/08 07:18:36;;;;;;;4.03;2.37;;;;;;;22.85;61.35;100865.22;1458023;89;21508;-81
2023/07/08 07:21:02;;;;;;;4.42;2.80;;;;;;;22.97;59.46;100870.24;1441668;89;21530;-81
2023/07/08 07:23:29;;;;;;;4.47;2.92;;;;;;;23.04;60.79;100874.77;1447158;89;21413;-82
2023/07/08 07:25:57;;;;;;;4.30;2.27;;;;;;;23.12;60.38;100867.75;1451400;89;21339;-80
2023/07/08 07:28:23;;;;;;;3.95;2.62;;;;;;;23.20;58.77;100868.83;1453284;89;21494;-79
2023/07/08 07:30:58;;;;;;;6.70;3.00;;;;;;;23.28;58.74;100872.61;1444137;89;21512;-79
2023/07/08 07:33:26;;;;;;;5.67;2.33;;;;;;;23.41;57.17;100868.42;1454221;89;21479;-79
2023/07/08 07:35:53;;;;;;;5.35;2.90;;;;;;;23.58;57.56;100863.81;1449561;89;22447;-78
2023/07/08 07:38:19;;;;;;;6.22;2.65;;;;;;;23.73;58.54;100870.23;1448625;89;21471;-78
2023/07/08 07:40:45;;;;;;;16.87;3.45;;;;;;;23.91;58.90;100869.42;1450965;88;21519;-79
2023/07/08 07:43:12;;;;;;;5.28;2.70;;;;;;;24.06;58.45;100868.53;1443653;89;21398;-78
2023/07/08 07:45:38;;;;;;;4.25;2.08;;;;;;;24.22;57.49;100863.02;1457483;89;21542;-76
2023/07/08 07:48:05;;;;;;;5.45;2.58;;;;;;;24.23;55.68;100861.99;1455735;89;21538;-78
2023/07/08 07:50:31;;;;;;;6.65;2.37;;;;;;;24.27;55.68;100862.64;1447392;89;21428;-78
2023/07/08 07:52:58;;;;;;;9.15;2.17;;;;;;;24.46;55.44;100869.42;1457400;88;21605;-77
2023/07/08 07:55:25;;;;;;;2.55;2.12;;;;;;;24.51;52.91;100871.74;1459855;89;21559;-74
2023/07/08 07:57:52;;;;;;;6.72;2.10;;;;;;;24.62;53.08;100871.47;1443088;89;21619;-76
2023/07/08 08:00:18;;;;;;;3.85;2.77;;;;;;;24.75;53.28;100871.29;1450206;89;21390;-75
2023/07/08 08:02:45;;;;;;;3.60;1.98;;;;;;;24.86;52.61;100868.83;1447174;90;22321;-75
2023/07/08 08:05:11;;;;;;;5.45;2.10;;;;;;;24.92;51.26;100866.58;1452267;89;21863;-75
2023/07/08 08:07:37;;;;;;;7.20;2.95;;;;;;;25.06;52.63;100869.38;1446943;89;21420;-76
2023/07/08 08:10:04;;;;;;;7.85;2.85;;;;;;;25.20;51.88;100870.84;1453688;89;22078;-75
2023/07/08 08:12:31;;;;;;;4.28;2.17;;;;;;;25.29;52.76;100871.32;1453622;89;21538;-75
2023/07/08 08:14:57;;;;;;;3.47;2.17;;;;;;;25.43;52.84;100871.89;1449221;89;21353;-76
2023/07/08 08:17:24;;;;;;;4.00;1.87;;;;;;;25.48;50.59;100873.38;1448950;88;21613;-75
2023/07/08 08:19:50;;;;;;;5.37;1.90;;;;;;;25.59;51.81;100873.09;1450943;89;21996;-75
2023/07/08 08:22:17;;;;;;;6.30;2.30;;;;;;;25.75;51.40;100871.52;1449359;89;21383;-76
2023/07/08 08:24:43;;;;;;;6.45;2.30;;;;;;;25.83;50.67;100865.23;1446313;89;21560;-74
2023/07/08 08:27:10;;;;;;;3.47;2.15;;;;;;;25.64;42.41;100863.19;1450719;89;21383;-75
2023/07/08 08:29:36;;;;;;;4.60;2.30;;;;;;;25.71;47.58;100867.12;1453938;89;21505;-74
2023/07/08 08:32:03;;;;;;;7.33;2.77;;;;;;;25.78;47.31;100861.05;1452951;89;21383;-78
2023/07/08 08:34:31;;;;;;;5.90;1.47;;;;;;;25.81;46.20;100864.64;1450854;89;21309;-79
2023/07/08 08:36:58;;;;;;;3.55;1.95;;;;;;;25.87;45.77;100870.50;1456138;89;21552;-79
2023/07/08 08:39:26;;;;;;;5.30;2.30;;;;;;;26.08;47.06;100859.54;1451012;88;21368;-79
2023/07/08 08:41:54;;;;;;;3.08;1.65;;;;;;;26.25;45.64;100860.15;1447035;89;21560;-79
2023/07/08 08:44:25;;;;;;;7.10;2.10;;;;;;;26.20;42.16;100858.69;1441158;89;21361;-78
2023/07/08 08:47:26;;;;;;;3.47;2.27;;;;;;;26.29;43.33;100858.59;1449084;89;21494;-79
2023/07/08 08:49:58;;;;;;;5.37;2.30;;;;;;;26.25;42.65;100853.37;1445445;89;21382;-77
2023/07/08 08:52:24;;;;;;;6.35;1.95;;;;;;;26.28;40.54;100857.77;1448181;89;21457;-79
2023/07/08 08:54:51;;;;;;;2.02;1.70;;;;;;;26.35;40.28;100848.13;1447710;89;21398;-79
2023/07/08 08:57:34;;;;;;;2.70;2.00;;;;;;;26.48;40.57;100852.45;1457010;88;21612;-83
2023/07/08 09:00:01;;;;;;;4.85;1.57;;;;;;;26.62;39.24;100853.02;1444456;89;21472;-83
2023/07/08 09:02:43;;;;;;;9.03;2.20;;;;;;;26.61;38.20;100848.09;1452729;89;22426;-84
2023/07/08 09:05:11;;;;;;;6.90;1.90;;;;;;;26.74;38.97;100853.77;1455270;89;21375;-82
2023/07/08 09:08:15;;;;;;;6.62;1.80;;;;;;;26.91;39.61;100849.18;1457611;88;22299;-91
2023/07/08 09:11:14;;;;;;;2.60;1.75;;;;;;;26.93;36.62;100847.05;1450426;90;21471;-83
2023/07/08 09:13:41;;;;;;;2.25;1.70;;;;;;;26.86;37.84;100853.16;1448872;90;21612;-83
2023/07/08 09:16:36;;;;;;;5.08;1.60;;;;;;;27.05;37.90;100842.08;1451204;89;22306;-82
2023/07/08 09:19:13;;;;;;;9.08;1.70;;;;;;;27.19;37.54;100851.58;1450351;89;21419;-82
2023/07/08 09:21:57;;;;;;;3.92;1.87;;;;;;;27.19;36.00;100848.86;1456063;88;21390;-83
2023/07/08 09:24:38;;;;;;;4.00;2.05;;;;;;;27.25;37.11;100845.66;1451593;89;21575;-84
2023/07/08 09:27:05;;;;;;;4.15;2.20;;;;;;;27.37;37.29;100846.41;1441556;90;21464;-82
2023/07/08 09:29:32;;;;;;;4.03;2.30;;;;;;;27.22;34.16;100853.80;1452594;89;21605;-83
2023/07/08 09:32:01;;;;;;;6.83;1.65;;;;;;;27.18;35.56;100855.34;1438906;90;21383;-82
2023/07/08 09:34:47;;;;;;;3.05;1.90;;;;;;;27.26;36.62;100857.65;1450902;89;22433;-82
2023/07/08 09:37:27;;;;;;;2.20;1.77;;;;;;;27.15;35.65;100856.66;1448620;89;21449;-83
2023/07/08 09:47:03;;;;;;;7.10;2.05;;;;;;;27.05;36.13;100844.80;1447576;89;21346;-83
2023/07/08 09:49:35;;;;;;;7.58;1.82;;;;;;;26.90;35.44;100847.55;1455849;89;21597;-82
2023/07/08 09:52:04;;;;;;;3.72;1.62;;;;;;;27.17;37.53;100850.45;1446727;89;21428;-83
2023/07/08 09:54:32;;;;;;;3.43;1.80;;;;;;;27.41;36.79;100848.90;1444077;89;21531;-83
2023/07/08 09:57:09;;;;;;;2.58;1.57;;;;;;;27.50;36.49;100850.66;1448258;89;22308;-81
2023/07/08 10:06:48;;;;;;;5.45;1.95;;;;;;;27.64;36.74;100851.41;1395543;93;21547;-83
2023/07/08 10:09:19;;;;;;;4.25;1.55;;;;;;;27.94;35.88;100849.37;1417435;92;21605;-80
2023/07/08 10:12:00;;;;;;;4.20;1.65;;;;;;;28.04;35.14;100839.98;1402907;93;21504;-80
2023/07/08 10:14:41;;;;;;;4.87;1.60;;;;;;;27.85;36.07;100843.55;1421737;92;21556;-84
2023/07/08 10:17:12;;;;;;;2.10;1.40;;;;;;;27.85;35.67;100835.39;1415672;91;21530;-83
2023/07/08 10:19:48;;;;;;;6.58;1.87;;;;;;;27.83;36.11;100843.81;1391649;92;22834;-84
2023/07/08 10:25:58;;;;;;;3.62;1.70;;;;;;;28.00;34.63;100841.58;1398186;93;21399;-85
2023/07/08 10:28:36;;;;;;;5.65;2.10;;;;;;;28.31;36.43;100838.14;1450214;90;21390;-84
2023/07/08 10:31:27;;;;;;;4.58;1.72;;;;;;;28.49;36.67;100836.17;1449776;89;22506;-85
2023/07/08 10:34:41;;;;;;;4.62;1.45;;;;;;;28.31;35.39;100831.84;1445270;89;21433;-88
2023/07/08 10:37:48;;;;;;;4.25;2.08;;;;;;;28.14;36.47;100838.77;1451708;89;21405;-87
2023/07/08 10:40:51;;;;;;;5.53;2.33;;;;;;;27.99;36.60;100838.02;1444280;90;21463;-86
2023/07/08 10:47:54;;;;;;;;;;;;;;;28.08;35.16;100831.59;1436018;90;21423;-87
2023/07/08 12:43:46;;;;;;;2.95;1.55;;;;;;;29.87;32.84;100755.37;1374661;94;21584;-80
2023/07/08 12:46:16;;;;;;;2.72;1.85;;;;;;;30.05;32.90;100761.69;1373878;95;21348;-79
2023/07/08 12:48:43;;;;;;;2.35;1.57;;;;;;;30.17;32.43;100760.62;1380577;95;21672;-80
2023/07/08 12:51:23;;;;;;;2.10;1.70;;;;;;;30.10;30.66;100749.43;1382410;95;21436;-81
2023/07/08 12:53:52;;;;;;;2.45;1.50;;;;;;;29.97;31.43;100754.03;1382543;95;21503;-81
2023/07/08 12:56:21;;;;;;;2.22;1.52;;;;;;;29.93;32.15;100765.77;1378743;95;21628;-80
2023/07/08 12:58:54;;;;;;;2.47;1.65;;;;;;;30.04;31.68;100764.16;1373642;95;21437;-81
2023/07/08 13:06:03;;;;;;;3.37;2.40;;;;;;;30.42;32.69;100759.33;1344631;97;21559;-81
2023/07/08 13:08:34;;;;;;;3.22;1.50;;;;;;;30.83;31.26;100754.44;1328967;98;23103;-82
2023/07/08 13:11:06;;;;;;;7.50;1.85;;;;;;;30.85;31.66;100756.36;1317279;100;21484;-81
2023/07/08 13:13:40;;;;;;;7.62;1.77;;;;;;;31.16;31.49;100754.36;1340210;97;22365;-82
2023/07/08 13:16:08;;;;;;;5.25;1.85;;;;;;;31.29;31.11;100753.80;1335061;97;22700;-82
2023/07/08 13:18:43;;;;;;;2.55;1.65;;;;;;;31.50;31.13;100755.12;1334412;98;21423;-82
2023/07/08 13:21:16;;;;;;;3.08;1.98;;;;;;;31.74;30.00;100752.02;1364968;96;21491;-81
2023/07/08 13:23:44;;;;;;;5.12;1.60;;;;;;;31.68;29.62;100746.30;1370581;96;21641;-82
2023/07/08 13:26:20;;;;;;;11.65;2.25;;;;;;;31.51;29.27;100745.28;1366127;95;22131;-81
2023/07/08 13:28:48;;;;;;;3.05;1.70;;;;;;;31.35;28.87;100751.34;1366382;95;21724;-82
2023/07/08 13:31:22;;;;;;;3.83;1.32;;;;;;;31.59;30.14;100738.39;1367046;96;21410;-81
2023/07/08 13:33:57;;;;;;;21.07;19.05;;;;;;;32.01;29.02;100742.59;1371626;95;21417;-82
2023/07/08 13:36:31;;;;;;;6.37;3.45;;;;;;;32.12;29.42;100730.47;1374235;96;21462;-82
2023/07/08 13:38:58;;;;;;;4.65;2.08;;;;;;;32.11;26.69;100724.71;1358271;95;21729;-81
2023/07/08 13:41:24;;;;;;;4.70;1.82;;;;;;;32.41;28.45;100722.86;1389401;92;21422;-81
2023/07/08 13:43:51;;;;;;;1.70;1.57;;;;;;;32.52;27.98;100723.08;1432492;89;21589;-81
2023/07/08 13:46:41;;;;;;;2.47;1.80;;;;;;;32.41;27.60;100724.23;1451623;90;21551;-81
2023/07/08 13:49:27;;;;;;;3.55;2.10;;;;;;;32.42;27.88;100727.23;1444346;90;21515;-81
2023/07/08 13:56:35;;;;;;;2.60;2.00;;;;;;;33.08;27.11;100715.69;1417333;92;21412;-80
2023/07/08 13:59:12;;;;;;;2.50;1.67;;;;;;;33.20;26.80;100716.11;1416619;92;21607;-82
2023/07/08 14:01:48;;;;;;;3.80;2.22;;;;;;;33.72;26.75;100709.98;1422357;92;21523;-81
2023/07/08 14:04:19;;;;;;;3.02;1.90;;;;;;;33.89;26.88;100713.02;1430023;91;21793;-82
2023/07/08 14:06:45;;;;;;;2.72;1.70;;;;;;;34.04;27.75;100712.84;1417581;91;21413;-81